Time;durP1;ratioP1;P1;durP2;ratioP2;P2;SDS_P1;SDS_P2;PMS_P1;PMS_P2;Temp;Humidity;BMP_temperature;BMP_pressure;BME280_temperature;BME280_humidity;BME280_pressure;Samples;Min_cycle;Max_cycle;Signal;HPM_P1;HPM_P2
2021/12/25 00:00:08;;;;;;;;;52.00;38.00;;;;;11.68;79.10;100072.03;5023066;28;45617;-56
2021/12/25 00:02:34;;;;;;;;;42.00;37.00;;;;;11.68;79.19;100079.09;5022671;28;45313;-57
2021/12/25 00:05:01;;;;;;;;;43.00;35.00;;;;;11.68;79.23;100076.47;5022490;28;45323;-57
2021/12/25 00:07:26;;;;;;;;;35.50;30.75;;;;;11.69;79.17;100083.41;5022894;28;45328;-57
2021/12/25 00:09:51;;;;;;;;;33.75;29.00;;;;;11.69;78.92;100078.16;5023004;28;45451;-57
2021/12/25 00:12:17;;;;;;;;;34.00;29.75;;;;;11.70;79.18;100074.56;5022815;28;45288;-56
2021/12/25 00:14:42;;;;;;;;;32.00;28.00;;;;;11.70;79.21;100069.31;5022538;28;46211;-57
2021/12/25 00:17:08;;;;;;;;;30.25;26.75;;;;;11.71;79.21;100063.06;5022215;28;45320;-57
2021/12/25 00:19:33;;;;;;;;;29.25;29.00;;;;;11.71;79.25;100069.19;5022671;28;45461;-57
2021/12/25 00:22:00;;;;;;;;;25.50;23.75;;;;;11.71;79.27;100063.06;5022709;28;45141;-57
2021/12/25 00:24:26;;;;;;;;;25.50;23.50;;;;;11.70;79.01;100061.38;5022438;28;46249;-57
2021/12/25 00:27:05;;;;;;;;;30.25;26.25;;;;;11.69;78.89;100055.28;5022504;28;45295;-57
2021/12/25 00:32:15;;;;;;;;;24.25;23.25;;;;;11.69;79.03;100051.75;5022435;28;45641;-58
2021/12/25 00:34:41;;;;;;;;;25.75;22.00;;;;;11.70;78.82;100041.13;5021937;28;45368;-57
2021/12/25 00:37:08;;;;;;;;;27.25;25.75;;;;;11.71;79.05;100037.53;5022137;28;45323;-57
2021/12/25 00:39:33;;;;;;;;;25.25;23.75;;;;;11.72;79.02;100025.16;5022509;28;45498;-56
2021/12/25 00:42:00;;;;;;;;;29.75;24.50;;;;;11.71;79.11;100034.03;5022297;28;45281;-58
2021/12/25 00:44:26;;;;;;;;;25.50;22.50;;;;;11.69;79.12;100031.53;5022155;28;45258;-57
2021/12/25 00:46:52;;;;;;;;;28.00;24.25;;;;;11.67;79.25;100025.50;5021659;28;45475;-57
2021/12/25 00:49:18;;;;;;;;;31.00;28.25;;;;;11.64;79.04;100024.91;5017421;28;45401;-58
2021/12/25 00:51:44;;;;;;;;;28.75;26.00;;;;;11.60;79.15;100026.91;5019807;28;45316;-57
2021/12/25 00:54:10;;;;;;;;;30.00;27.75;;;;;11.55;79.20;100031.72;5022031;28;45404;-57
2021/12/25 00:56:36;;;;;;;;;31.00;27.50;;;;;11.50;79.04;100033.84;5021903;28;45495;-57
2021/12/25 00:59:02;;;;;;;;;33.75;28.00;;;;;11.44;79.13;100039.56;5022038;28;45404;-56
2021/12/25 01:01:29;;;;;;;;;29.50;22.75;;;;;11.41;78.87;100031.88;5022087;28;45315;-57
2021/12/25 01:03:54;;;;;;;;;29.75;27.00;;;;;11.35;78.90;100046.34;5021034;28;46053;-58
2021/12/25 01:06:20;;;;;;;;;30.00;26.25;;;;;11.34;79.32;100043.84;5021432;28;45352;-57
2021/12/25 01:08:46;;;;;;;;;72.25;52.75;;;;;11.31;79.14;100044.91;5022021;28;45258;-57
2021/12/25 01:11:12;;;;;;;;;30.50;26.25;;;;;11.29;79.07;100041.53;5021766;28;45526;-55
2021/12/25 01:13:48;;;;;;;;;31.75;27.75;;;;;11.25;79.63;100045.34;5021548;28;45411;-56
2021/12/25 01:24:42;;;;;;;;;37.00;29.50;;;;;11.15;79.50;100047.00;4999401;28;45436;-57
2021/12/25 01:27:45;;;;;;;;;33.25;31.50;;;;;11.13;79.31;100046.22;5014436;28;45356;-57
2021/12/25 01:30:09;;;;;;;;;35.00;32.75;;;;;11.07;79.60;100049.34;5021321;28;45308;-57
2021/12/25 01:48:34;;;;;;;;;41.75;34.00;;;;;10.85;79.85;100058.78;5020977;28;45229;-56
2021/12/25 01:51:00;;;;;;;;;38.00;31.25;;;;;10.84;79.75;100058.88;5021037;28;45470;-57
2021/12/25 01:53:25;;;;;;;;;39.75;36.75;;;;;10.83;79.73;100058.06;5020894;28;45237;-57
2021/12/25 01:55:51;;;;;;;;;37.75;34.50;;;;;10.83;80.38;100060.69;5020901;28;45351;-57
2021/12/25 01:58:16;;;;;;;;;34.50;32.50;;;;;10.87;79.87;100056.03;5020851;28;45445;-57
2021/12/25 02:00:48;;;;;;;;;41.25;32.50;;;;;10.92;79.86;100060.97;5021234;28;45310;-56
2021/12/25 02:03:16;;;;;;;;;36.75;35.00;;;;;10.94;79.96;100067.81;5007857;28;45395;-58
2021/12/25 02:05:42;;;;;;;;;36.25;30.75;;;;;10.98;79.90;100071.94;5020496;28;45440;-57
2021/12/25 02:08:08;;;;;;;;;40.75;32.25;;;;;11.03;80.10;100075.06;5021037;28;45258;-57
2021/12/25 02:10:34;;;;;;;;;35.25;31.25;;;;;11.07;79.71;100066.00;5021244;28;45478;-56
2021/12/25 02:13:02;;;;;;;;;38.75;35.00;;;;;11.11;79.58;100072.72;5020958;28;45237;-56
2021/12/25 02:15:28;;;;;;;;;35.25;31.75;;;;;11.13;79.89;100070.78;5020603;28;45320;-56
2021/12/25 02:18:55;;;;;;;;;44.00;34.00;;;;;11.16;79.86;100069.75;5020726;28;45347;-57
2021/12/25 02:20:53;;;;;;;;;29.25;24.50;;;;;11.20;79.61;100073.84;5015046;28;45311;-58
2021/12/25 02:23:23;;;;;;;;;28.50;26.25;;;;;11.24;79.42;100069.19;5020801;28;45261;-58
2021/12/25 02:25:51;;;;;;;;;20.50;16.25;;;;;11.24;79.49;100069.19;5020549;28;45241;-57
2021/12/25 02:28:18;;;;;;;;;10.50;10.00;;;;;11.22;79.17;100079.88;5020667;28;45354;-57
2021/12/25 02:30:46;;;;;;;;;11.25;10.00;;;;;11.17;79.01;100067.00;5020619;28;45379;-57
2021/12/25 02:33:12;;;;;;;;;11.25;11.00;;;;;11.16;79.33;100064.47;5020914;28;45240;-58
2021/12/25 02:35:38;;;;;;;;;13.25;11.00;;;;;11.16;78.98;100065.31;5020217;28;45778;-57
2021/12/25 02:38:05;;;;;;;;;12.00;10.25;;;;;11.18;79.29;100070.47;5020741;28;45421;-57
2021/12/25 02:40:31;;;;;;;;;11.00;10.75;;;;;11.22;79.05;100076.34;5020665;28;45359;-57
2021/12/25 02:42:57;;;;;;;;;16.25;12.50;;;;;11.23;78.71;100084.19;5020545;28;45358;-57
2021/12/25 02:45:23;;;;;;;;;13.50;13.50;;;;;11.25;78.91;100066.44;5020445;28;45367;-57
2021/12/25 02:47:52;;;;;;;;;11.25;10.50;;;;;11.28;78.93;100066.22;5020440;28;45459;-57
2021/12/25 02:50:23;;;;;;;;;10.75;10.75;;;;;11.31;78.75;100068.66;5016351;28;45442;-58
2021/12/25 02:52:49;;;;;;;;;15.75;10.25;;;;;11.31;78.92;100066.00;5023645;28;45403;-57
2021/12/25 02:55:14;;;;;;;;;12.25;11.75;;;;;11.30;78.39;100059.06;5038907;28;46254;-57
2021/12/25 02:57:40;;;;;;;;;10.25;9.00;;;;;11.32;78.46;100062.41;5023754;28;45253;-56
2021/12/25 03:00:08;;;;;;;;;11.75;11.00;;;;;11.33;78.88;100064.09;5023583;28;45282;-57
2021/12/25 03:02:34;;;;;;;;;15.50;10.75;;;;;11.34;78.57;100060.50;5023696;28;45230;-57
2021/12/25 03:05:00;;;;;;;;;14.50;13.50;;;;;11.36;78.52;100058.59;5023650;28;46403;-57
2021/12/25 03:07:26;;;;;;;;;11.00;8.00;;;;;11.38;78.67;100059.34;5023732;28;45403;-57
2021/12/25 03:09:52;;;;;;;;;15.00;12.50;;;;;11.41;78.82;100059.09;5023865;28;45316;-57
2021/12/25 03:12:26;;;;;;;;;14.50;14.00;;;;;11.44;78.50;100058.03;5023789;28;45317;-57
2021/12/25 03:15:14;;;;;;;;;16.75;14.75;;;;;11.47;78.51;100055.19;5023599;28;45446;-56
2021/12/25 03:17:40;;;;;;;;;14.50;13.25;;;;;11.49;78.45;100052.41;5023367;28;45225;-57
2021/12/25 03:20:08;;;;;;;;;12.00;10.75;;;;;11.52;78.50;100054.81;5023596;28;45321;-57
2021/12/25 03:22:34;;;;;;;;;15.00;13.75;;;;;11.55;78.27;100058.09;5023470;28;45304;-57
2021/12/25 03:24:59;;;;;;;;;13.75;11.25;;;;;11.57;78.07;100050.06;5023445;28;46051;-58
2021/12/25 03:27:25;;;;;;;;;15.50;14.50;;;;;11.58;78.51;100049.94;5023324;28;45316;-57
2021/12/25 03:29:51;;;;;;;;;11.75;11.00;;;;;11.59;78.13;100048.13;5023587;28;45414;-57
2021/12/25 03:32:17;;;;;;;;;16.25;13.75;;;;;11.60;78.03;100044.53;5023410;28;45558;-57
2021/12/25 03:34:42;;;;;;;;;14.00;13.00;;;;;11.60;78.21;100050.66;5023102;28;45417;-57
2021/12/25 03:37:08;;;;;;;;;15.00;12.00;;;;;11.63;78.21;100052.25;5023276;28;45339;-57
2021/12/25 03:39:34;;;;;;;;;15.75;12.25;;;;;11.64;78.06;100053.91;5023509;28;45334;-57
2021/12/25 03:41:59;;;;;;;;;14.50;12.25;;;;;11.64;78.09;100057.41;5023297;28;45182;-57
2021/12/25 03:44:26;;;;;;;;;12.00;10.00;;;;;11.65;77.88;100060.88;5022994;28;46011;-57
2021/12/25 03:46:53;;;;;;;;;18.00;15.00;;;;;11.66;78.01;100052.00;5022836;28;45267;-57
2021/12/25 03:53:06;;;;;;;;;15.75;14.50;;;;;11.66;78.09;100059.91;5022807;28;45456;-58
2021/12/25 03:57:53;;;;;;;;;13.25;11.00;;;;;11.68;78.02;100060.63;5022998;28;45300;-57
2021/12/25 04:00:27;;;;;;;;;14.00;11.50;;;;;11.66;78.45;100063.38;5022661;28;45229;-57
2021/12/25 04:02:57;;;;;;;;;13.50;12.50;;;;;11.66;78.37;100070.47;5022696;28;45182;-57
2021/12/25 04:05:27;;;;;;;;;17.75;14.25;;;;;11.66;78.42;100075.75;5022771;28;45332;-56
2021/12/25 04:10:22;;;;;;;;;14.50;10.75;;;;;11.65;78.62;100077.53;5022987;28;45610;-57
2021/12/25 04:12:47;;;;;;;;;14.00;10.00;;;;;11.65;78.23;100074.91;5022866;28;45307;-57
2021/12/25 04:15:13;;;;;;;;;17.25;13.50;;;;;11.67;78.73;100077.41;5022761;28;46171;-57
2021/12/25 04:17:38;;;;;;;;;15.25;13.75;;;;;11.68;78.50;100076.47;5022610;28;45253;-57
2021/12/25 04:20:04;;;;;;;;;16.00;15.25;;;;;11.69;78.66;100075.50;5022687;28;45346;-57
2021/12/25 04:22:41;;;;;;;;;16.00;12.25;;;;;11.69;78.36;100068.47;5022639;28;45514;-58
2021/12/25 04:25:07;;;;;;;;;17.75;13.50;;;;;11.69;78.29;100062.31;5022393;28;45540;-58
2021/12/25 04:27:33;;;;;;;;;20.00;11.50;;;;;11.70;78.74;100067.50;5022496;28;45225;-58
2021/12/25 04:30:18;;;;;;;;;16.50;14.75;;;;;11.72;78.49;100075.28;5022770;28;45444;-57
2021/12/25 05:03:04;;;;;;;;;24.00;17.00;;;;;11.71;78.57;100065.69;5021776;28;45297;-57
2021/12/25 05:05:31;;;;;;;;;25.50;21.00;;;;;11.69;78.78;100064.94;5021924;28;46245;-57
2021/12/25 05:07:56;;;;;;;;;16.25;16.25;;;;;11.69;78.63;100067.59;5021750;28;45225;-56
2021/12/25 05:10:22;;;;;;;;;20.50;17.25;;;;;11.70;78.93;100078.06;5021979;28;45343;-57
2021/12/25 05:12:47;;;;;;;;;26.50;18.75;;;;;11.71;78.55;100074.47;5021049;28;45202;-57
2021/12/25 05:15:13;;;;;;;;;24.50;19.75;;;;;11.71;78.53;100078.91;5021952;28;45369;-58
2021/12/25 05:17:38;;;;;;;;;22.75;18.25;;;;;11.70;78.73;100083.34;5021458;28;46223;-57
2021/12/25 05:20:04;;;;;;;;;25.25;23.25;;;;;11.73;78.78;100072.53;5021567;28;45182;-57
2021/12/25 05:22:30;;;;;;;;;23.50;16.25;;;;;11.73;78.49;100076.97;5021603;28;45346;-55
2021/12/25 05:24:55;;;;;;;;;19.75;16.25;;;;;11.72;78.56;100078.78;5021721;28;45392;-57
2021/12/25 05:27:21;;;;;;;;;28.50;18.50;;;;;11.73;78.64;100079.63;5021351;28;45231;-57
2021/12/25 05:29:47;;;;;;;;;21.50;18.00;;;;;11.73;78.99;100076.97;5021608;28;45333;-57
2021/12/25 05:32:17;;;;;;;;;23.25;18.50;;;;;11.74;78.97;100084.78;5021590;28;45339;-57
2021/12/25 05:34:43;;;;;;;;;29.25;21.75;;;;;11.75;79.05;100083.81;5021436;28;45368;-57
2021/12/25 05:37:09;;;;;;;;;28.25;19.00;;;;;11.76;79.08;100087.28;5021359;28;45388;-57
2021/12/25 05:39:34;;;;;;;;;18.00;17.25;;;;;11.77;78.92;100081.09;5021638;28;45485;-55
2021/12/25 05:42:00;;;;;;;;;20.50;18.00;;;;;11.78;78.89;100092.47;5021500;28;45316;-57
2021/12/25 05:44:25;;;;;;;;;19.75;16.00;;;;;11.78;79.02;100082.75;5021469;28;45433;-58
2021/12/25 05:46:52;;;;;;;;;24.00;19.25;;;;;11.78;79.09;100079.28;5021086;28;45544;-57
2021/12/25 05:49:18;;;;;;;;;22.50;17.25;;;;;11.78;78.75;100082.75;5021084;28;45296;-57
2021/12/25 05:51:43;;;;;;;;;17.50;14.75;;;;;11.78;78.83;100079.28;5021183;28;45427;-55
2021/12/25 05:54:09;;;;;;;;;19.75;16.00;;;;;11.78;78.78;100080.13;5021508;28;45414;-58
2021/12/25 05:56:35;;;;;;;;;16.50;15.00;;;;;11.78;78.85;100080.13;5020952;28;46005;-57
2021/12/25 05:59:00;;;;;;;;;19.50;17.00;;;;;11.79;78.74;100088.88;5021109;28;45306;-57
2021/12/25 06:01:26;;;;;;;;;17.25;15.00;;;;;11.78;78.65;100090.69;5021294;28;45423;-57
2021/12/25 06:03:52;;;;;;;;;15.50;13.00;;;;;11.78;78.54;100093.31;5020814;28;45163;-57
2021/12/25 06:06:17;;;;;;;;;20.75;15.25;;;;;11.78;78.47;100080.13;5020921;28;46263;-57
2021/12/25 06:08:43;;;;;;;;;25.25;17.50;;;;;11.78;78.79;100089.84;5021195;28;45253;-57
2021/12/25 06:11:08;;;;;;;;;16.25;14.75;;;;;11.77;78.50;100085.50;5021039;28;45280;-57
2021/12/25 06:13:43;;;;;;;;;15.50;14.50;;;;;11.77;78.66;100089.00;5021210;28;45256;-57
2021/12/25 06:16:08;;;;;;;;;17.00;14.00;;;;;11.77;78.36;100090.75;5020756;28;45276;-56
2021/12/25 06:18:34;;;;;;;;;18.75;15.75;;;;;11.73;78.61;100085.72;5020970;28;45237;-57
2021/12/25 06:20:59;;;;;;;;;17.75;15.50;;;;;11.72;78.68;100081.41;5020727;28;45418;-57
2021/12/25 06:23:26;;;;;;;;;19.00;15.75;;;;;11.73;78.61;100087.53;5020802;28;45311;-57
2021/12/25 06:25:52;;;;;;;;;16.75;15.75;;;;;11.73;78.75;100095.44;5020512;28;46208;-57
2021/12/25 06:28:17;;;;;;;;;20.75;14.75;;;;;11.73;78.83;100091.00;5020969;28;45284;-57
2021/12/25 06:30:44;;;;;;;;;20.25;15.50;;;;;11.73;78.92;100098.91;5020852;28;45486;-58
2021/12/25 06:33:09;;;;;;;;;16.75;14.00;;;;;11.72;79.05;100093.75;5020824;28;45241;-57
2021/12/25 06:35:35;;;;;;;;;22.25;15.00;;;;;11.72;79.11;100099.03;5020257;28;45205;-56
2021/12/25 06:38:00;;;;;;;;;12.00;10.50;;;;;11.72;79.56;100101.69;5020877;28;45283;-57
2021/12/25 06:40:26;;;;;;;;;15.50;15.00;;;;;11.71;79.26;100098.19;5020663;28;45360;-57
2021/12/25 06:42:51;;;;;;;;;16.50;16.00;;;;;11.69;79.16;100102.75;5020794;28;45318;-57
2021/12/25 06:45:17;;;;;;;;;16.50;12.25;;;;;11.69;79.04;100105.41;5020383;28;45480;-56
2021/12/25 06:47:43;;;;;;;;;24.25;16.00;;;;;11.71;79.08;100111.41;5020671;28;45268;-56
2021/12/25 06:50:10;;;;;;;;;15.00;14.50;;;;;11.72;79.33;100104.31;5020278;28;45209;-55
2021/12/25 06:52:36;;;;;;;;;15.50;14.75;;;;;11.72;78.91;100106.97;5020788;28;45280;-55
2021/12/25 06:55:04;;;;;;;;;19.00;16.75;;;;;11.73;79.21;100113.91;5020059;28;46251;-58
2021/12/25 06:57:30;;;;;;;;;16.75;15.25;;;;;11.71;78.98;100108.75;5020437;28;45387;-57
2021/12/25 06:59:55;;;;;;;;;15.50;14.25;;;;;11.72;78.91;100121.00;5020542;28;45833;-57
2021/12/25 07:02:21;;;;;;;;;17.25;15.50;;;;;11.71;79.02;100100.84;5020350;28;45489;-58
2021/12/25 07:04:46;;;;;;;;;25.50;17.75;;;;;11.72;79.37;100112.22;5020057;28;45754;-57
2021/12/25 07:07:12;;;;;;;;;21.25;15.75;;;;;11.71;79.13;100107.91;5020341;28;45352;-57
2021/12/25 07:09:38;;;;;;;;;18.75;16.00;;;;;11.71;79.06;100111.41;5020418;28;45301;-57
2021/12/25 07:12:04;;;;;;;;;20.50;16.75;;;;;11.72;79.36;100107.78;5020522;28;45209;-56
2021/12/25 07:14:29;;;;;;;;;20.25;14.00;;;;;11.73;79.22;100111.28;5020241;28;45271;-58
2021/12/25 07:16:55;;;;;;;;;18.25;16.75;;;;;11.74;79.39;100120.88;5020227;28;45421;-56
2021/12/25 07:19:20;;;;;;;;;22.50;17.25;;;;;11.74;79.40;100115.59;5020105;28;45461;-58
2021/12/25 07:21:46;;;;;;;;;15.50;14.50;;;;;11.74;79.28;100112.94;5020393;28;45315;-56
2021/12/25 07:24:13;;;;;;;;;19.00;17.25;;;;;11.73;79.03;100108.63;5019898;28;45360;-57
2021/12/25 07:26:39;;;;;;;;;16.75;15.00;;;;;11.72;79.28;100109.59;5020017;28;45332;-57
2021/12/25 07:29:05;;;;;;;;;17.75;16.00;;;;;11.73;79.33;100113.91;5020101;28;45335;-57
2021/12/25 07:31:31;;;;;;;;;17.00;15.00;;;;;11.73;79.49;100116.56;5020179;28;45229;-56
2021/12/25 07:33:56;;;;;;;;;18.00;17.00;;;;;11.71;79.18;100116.66;5019503;28;45292;-56
2021/12/25 07:36:23;;;;;;;;;19.25;18.50;;;;;11.71;79.53;100119.31;5022591;28;45221;-56
2021/12/25 07:38:49;;;;;;;;;27.25;18.75;;;;;11.72;79.33;100118.34;5023363;28;45475;-57
2021/12/25 07:41:14;;;;;;;;;18.00;16.25;;;;;11.72;79.48;100117.50;5023693;28;45605;-57
2021/12/25 07:43:40;;;;;;;;;17.75;14.25;;;;;11.73;79.25;100113.91;5023137;28;45811;-57
2021/12/25 07:46:05;;;;;;;;;15.00;15.00;;;;;11.73;79.26;100113.91;5023331;28;45399;-57
2021/12/25 07:48:33;;;;;;;;;17.50;15.00;;;;;11.74;79.34;100110.31;5022889;28;45308;-57
2021/12/25 07:51:02;;;;;;;;;24.50;19.00;;;;;11.74;79.47;100112.94;5023310;28;45306;-57
2021/12/25 07:53:28;;;;;;;;;21.25;20.25;;;;;11.72;79.26;100113.06;5009799;28;45273;-57
2021/12/25 07:55:53;;;;;;;;;23.00;18.00;;;;;11.72;79.49;100104.31;5023021;28;45154;-57
2021/12/25 07:58:19;;;;;;;;;20.50;14.50;;;;;11.72;79.36;100113.06;5023307;28;45246;-56
2021/12/25 08:00:45;;;;;;;;;17.75;15.25;;;;;11.74;79.59;100113.78;5023115;28;45370;-57
2021/12/25 08:03:12;;;;;;;;;18.50;16.50;;;;;11.75;79.59;100120.75;5022758;28;46158;-57
2021/12/25 08:05:37;;;;;;;;;17.25;14.75;;;;;11.76;79.39;100111.03;5022797;28;45608;-55
2021/12/25 08:08:04;;;;;;;;;21.50;20.75;;;;;11.78;79.47;100124.97;5023015;28;45500;-58
2021/12/25 08:10:30;;;;;;;;;18.50;17.00;;;;;11.78;79.19;100124.13;5023071;28;45283;-57
2021/12/25 08:12:58;;;;;;;;;19.75;15.25;;;;;11.80;79.07;100119.59;5022731;28;45279;-56
2021/12/25 08:15:26;;;;;;;;;23.00;21.75;;;;;11.79;79.18;100129.31;5022653;28;45226;-57
2021/12/25 08:17:53;;;;;;;;;24.75;16.50;;;;;11.81;79.38;100129.22;5023025;28;45317;-58
2021/12/25 08:20:19;;;;;;;;;24.75;19.50;;;;;11.81;79.05;100127.41;5022616;28;45675;-57
2021/12/25 08:22:44;;;;;;;;;17.25;15.00;;;;;11.82;79.22;100125.59;5022545;28;45504;-57
2021/12/25 08:25:12;;;;;;;;;24.75;20.25;;;;;11.83;79.24;100127.28;5022436;28;45367;-58
2021/12/25 08:27:39;;;;;;;;;17.25;16.25;;;;;11.80;79.29;100131.00;5022998;28;45300;-57
2021/12/25 08:30:08;;;;;;;;;21.75;19.00;;;;;11.81;79.38;100121.28;5022756;28;45731;-56
2021/12/25 08:32:34;;;;;;;;;22.25;18.00;;;;;11.81;79.19;100127.41;5022307;28;45435;-58
2021/12/25 08:35:00;;;;;;;;;21.50;17.25;;;;;11.81;78.86;100124.78;5021990;28;45332;-57
2021/12/25 08:37:26;;;;;;;;;21.00;15.75;;;;;11.82;78.86;100126.44;5022838;28;45242;-56
2021/12/25 08:39:53;;;;;;;;;23.00;18.50;;;;;11.81;78.67;100126.56;5022482;28;45414;-57
2021/12/25 08:42:21;;;;;;;;;22.00;20.00;;;;;11.78;78.76;100132.91;5022302;28;45325;-57
2021/12/25 08:47:26;;;;;;;;;23.50;20.25;;;;;11.80;78.72;100136.28;5021057;28;45353;-57
2021/12/25 08:49:51;;;;;;;;;23.25;21.75;;;;;11.83;78.78;100137.84;5022127;28;45473;-56
2021/12/25 08:52:19;;;;;;;;;22.00;18.50;;;;;11.83;78.70;100133.41;5022178;28;45332;-57
2021/12/25 08:54:48;;;;;;;;;22.50;19.50;;;;;11.84;78.61;100132.44;5021806;28;45248;-57
2021/12/25 08:57:19;;;;;;;;;21.75;18.25;;;;;11.85;78.25;100136.81;5022175;28;45321;-57
2021/12/25 08:59:45;;;;;;;;;12.25;9.25;;;;;11.86;78.40;100140.28;5021838;28;45447;-57
2021/12/25 09:02:15;;;;;;;;;20.00;17.00;;;;;11.85;78.42;100147.34;5021989;28;45530;-57
2021/12/25 09:04:43;;;;;;;;;18.50;15.50;;;;;11.86;78.25;100146.41;5021622;28;45450;-57
2021/12/25 09:07:09;;;;;;;;;18.75;17.75;;;;;11.87;78.46;100147.22;5022097;28;45379;-57
2021/12/25 09:09:36;;;;;;;;;24.25;22.00;;;;;11.88;78.18;100147.13;5021882;28;45498;-57
2021/12/25 09:12:02;;;;;;;;;18.50;16.75;;;;;11.90;78.15;100149.63;5021855;28;46082;-56
2021/12/25 09:14:27;;;;;;;;;22.25;16.50;;;;;11.89;77.98;100148.78;5021747;28;45384;-56
2021/12/25 09:16:53;;;;;;;;;24.50;18.50;;;;;11.88;78.10;100151.56;5021709;28;45289;-57
2021/12/25 09:19:19;;;;;;;;;18.00;16.50;;;;;11.87;77.92;100149.88;5021678;28;45432;-57
2021/12/25 09:21:45;;;;;;;;;14.25;14.00;;;;;11.86;77.85;100161.38;5021688;28;45275;-58
2021/12/25 09:24:10;;;;;;;;;20.00;19.00;;;;;11.88;77.84;100147.13;5021644;28;45260;-58
2021/12/25 09:26:36;;;;;;;;;21.75;18.00;;;;;11.92;77.65;100153.00;5021801;28;45494;-56
2021/12/25 09:29:02;;;;;;;;;22.00;18.25;;;;;11.92;77.62;100151.19;5021526;28;45277;-57
2021/12/25 09:31:28;;;;;;;;;22.00;18.50;;;;;11.94;77.86;100157.22;5021466;28;45365;-57
2021/12/25 09:33:53;;;;;;;;;18.50;16.00;;;;;11.98;77.61;100158.66;5021086;28;45218;-58
2021/12/25 09:36:20;;;;;;;;;15.00;11.25;;;;;12.04;77.83;100151.25;5021724;28;45217;-58
2021/12/25 09:38:46;;;;;;;;;19.50;17.00;;;;;12.07;77.66;100158.94;5021530;28;45451;-57
2021/12/25 09:41:12;;;;;;;;;25.25;14.75;;;;;12.10;77.76;100161.38;5021300;28;45291;-57
2021/12/25 09:43:39;;;;;;;;;22.50;17.75;;;;;12.13;77.61;100164.59;5021230;28;45333;-56
2021/12/25 09:46:05;;;;;;;;;18.75;18.50;;;;;12.14;77.67;100168.94;5021463;28;45219;-58
2021/12/25 09:48:31;;;;;;;;;23.75;18.00;;;;;12.17;77.64;100174.00;5021036;28;45247;-56
2021/12/25 09:50:57;;;;;;;;;25.25;18.75;;;;;12.18;77.48;100174.84;5021101;28;45696;-57
2021/12/25 09:53:23;;;;;;;;;18.25;17.50;;;;;12.19;77.36;100176.50;5020986;28;45445;-56
2021/12/25 09:55:48;;;;;;;;;19.50;17.75;;;;;12.21;77.44;100177.22;5021262;28;45237;-58
2021/12/25 09:58:14;;;;;;;;;18.00;15.50;;;;;12.22;77.32;100171.84;5020688;28;45613;-57
2021/12/25 10:00:42;;;;;;;;;21.25;17.50;;;;;12.24;77.44;100174.34;5020941;28;45538;-58
2021/12/25 10:03:08;;;;;;;;;16.25;15.00;;;;;12.26;77.35;100177.75;5020745;28;45338;-57
2021/12/25 10:05:44;;;;;;;;;19.50;18.25;;;;;12.28;77.62;100168.72;5020926;28;45351;-58
2021/12/25 10:08:20;;;;;;;;;26.25;19.75;;;;;12.28;77.11;100167.91;5021399;28;45305;-56
2021/12/25 10:11:01;;;;;;;;;25.00;22.50;;;;;12.29;77.12;100174.84;5019519;28;46260;-57
2021/12/25 10:13:32;;;;;;;;;23.00;17.75;;;;;12.28;76.84;100178.47;5020948;28;45315;-57
2021/12/25 10:16:17;;;;;;;;;18.00;17.50;;;;;12.26;76.71;100175.09;5020950;28;45217;-57
2021/12/25 10:18:43;;;;;;;;;21.25;20.75;;;;;12.28;76.73;100176.66;5020832;28;45253;-57
2021/12/25 10:21:17;;;;;;;;;17.50;16.50;;;;;12.26;76.81;100175.94;5019572;28;46826;-58
2021/12/25 10:23:42;;;;;;;;;21.50;17.50;;;;;12.25;76.55;100163.69;5020786;28;45451;-56
2021/12/25 10:26:08;;;;;;;;;22.00;17.25;;;;;12.26;76.84;100160.09;5020911;28;45285;-57
2021/12/25 10:28:38;;;;;;;;;21.75;18.00;;;;;12.30;76.92;100168.63;5020906;28;45313;-57
2021/12/25 10:31:16;;;;;;;;;18.50;16.00;;;;;12.34;76.86;100166.59;5020698;28;46381;-57
2021/12/25 10:33:53;;;;;;;;;22.25;17.00;;;;;12.38;76.61;100150.38;5020180;28;45292;-58
2021/12/25 10:36:25;;;;;;;;;17.25;15.75;;;;;12.43;76.62;100161.44;5020761;28;45237;-57
2021/12/25 10:39:01;;;;;;;;;23.50;20.00;;;;;12.47;76.44;100157.59;5020730;28;45225;-58
2021/12/25 10:41:27;;;;;;;;;24.00;18.25;;;;;12.53;76.39;100156.31;5035710;28;46964;-56
2021/12/25 10:44:10;;;;;;;;;21.50;17.50;;;;;12.60;76.27;100160.16;5020654;28;45321;-56
2021/12/25 10:47:10;;;;;;;;;21.25;18.50;;;;;12.68;76.22;100162.22;5020530;28;45259;-57
2021/12/25 10:49:38;;;;;;;;;27.25;23.00;;;;;12.73;75.97;100152.97;5012375;28;45504;-57
2021/12/25 10:52:15;;;;;;;;;19.00;15.50;;;;;12.82;75.87;100151.41;5020346;28;45955;-57
2021/12/25 10:54:46;;;;;;;;;16.25;13.00;;;;;12.88;75.60;100150.09;5020260;28;45332;-58
2021/12/25 10:57:30;;;;;;;;;17.75;15.75;;;;;12.95;75.44;100152.13;5020637;28;45438;-58
2021/12/25 10:59:56;;;;;;;;;24.75;15.75;;;;;13.01;75.26;100140.22;5020359;28;45407;-57
2021/12/25 11:02:37;;;;;;;;;17.50;16.25;;;;;13.01;74.88;100140.22;5020236;28;45316;-58
2021/12/25 11:05:29;;;;;;;;;15.25;14.25;;;;;13.04;74.63;100140.00;5020237;28;45177;-57
2021/12/25 11:08:10;;;;;;;;;19.00;13.75;;;;;13.04;74.70;100138.22;5020284;28;45299;-58
2021/12/25 11:10:56;;;;;;;;;18.25;15.75;;;;;13.05;74.76;100133.75;5021603;28;45477;-57
2021/12/25 11:13:40;;;;;;;;;15.75;15.00;;;;;13.02;74.35;100131.34;5023776;28;46003;-57
2021/12/25 11:16:14;;;;;;;;;19.75;14.50;;;;;12.97;74.48;100125.59;5023560;28;45324;-57
2021/12/25 11:19:10;;;;;;;;;21.50;16.50;;;;;12.97;74.55;100122.94;5023310;28;45214;-56
2021/12/25 11:21:56;;;;;;;;;23.50;16.00;;;;;12.95;74.64;100125.69;5023742;28;45483;-57
2021/12/25 11:24:22;;;;;;;;;16.50;13.25;;;;;12.91;74.62;100126.91;5023514;28;45435;-57
2021/12/25 11:26:52;;;;;;;;;17.00;14.50;;;;;12.91;74.47;100124.25;5023499;28;45319;-57
2021/12/25 11:29:20;;;;;;;;;18.75;13.25;;;;;12.92;74.53;100119.81;5023906;28;45236;-56
2021/12/25 11:31:48;;;;;;;;;16.50;11.25;;;;;12.91;74.49;100115.50;5023251;28;45358;-57
2021/12/25 11:34:15;;;;;;;;;13.50;12.25;;;;;12.89;74.31;100115.63;5038682;28;46916;-58
2021/12/25 11:36:43;;;;;;;;;15.50;15.00;;;;;12.89;74.34;100118.25;5023200;28;45173;-54
2021/12/25 11:39:08;;;;;;;;;17.75;16.50;;;;;12.92;74.30;100114.53;5023329;28;45290;-57
2021/12/25 11:41:36;;;;;;;;;12.00;10.00;;;;;12.96;74.39;100111.53;5023299;28;45236;-58
2021/12/25 11:44:06;;;;;;;;;16.25;12.25;;;;;13.02;74.01;100111.03;5023438;28;45253;-57
2021/12/25 11:46:44;;;;;;;;;19.00;16.00;;;;;13.11;74.28;100106.81;5023154;28;45312;-58
2021/12/25 11:49:12;;;;;;;;;13.50;13.50;;;;;13.19;74.13;100100.91;5023058;28;45418;-57
2021/12/25 11:51:40;;;;;;;;;16.25;14.50;;;;;13.27;73.78;100107.31;5023161;28;45457;-57
2021/12/25 11:54:44;;;;;;;;;17.00;16.00;;;;;13.31;73.75;100095.50;5023165;28;45455;-58
2021/12/25 11:57:34;;;;;;;;;14.50;13.00;;;;;13.35;73.36;100098.72;5023041;28;45324;-57
2021/12/25 11:59:56;;;;;;;;;19.25;16.50;;;;;13.39;73.37;100100.19;5023051;28;45365;-57
2021/12/25 12:02:41;;;;;;;;;20.25;16.75;;;;;13.41;73.12;100090.31;5022940;28;45478;-58
2021/12/25 12:05:25;;;;;;;;;16.00;13.75;;;;;13.43;73.23;100096.34;5022720;28;45213;-57
2021/12/25 12:07:59;;;;;;;;;18.00;16.50;;;;;13.46;72.81;100101.38;5022770;28;45374;-57
2021/12/25 12:10:46;;;;;;;;;18.00;14.25;;;;;13.50;73.18;100099.28;5022974;28;45325;-57
2021/12/25 12:13:14;;;;;;;;;18.00;17.00;;;;;13.52;72.74;100097.38;5023208;28;45734;-57
2021/12/25 12:15:50;;;;;;;;;17.25;14.25;;;;;13.48;72.71;100091.50;5037873;28;46671;-57
2021/12/25 12:18:37;;;;;;;;;14.75;12.75;;;;;13.51;72.59;100093.91;5022484;28;45372;-57
2021/12/25 12:21:12;;;;;;;;;13.25;11.00;;;;;13.56;72.60;100090.88;5037872;28;45290;-57
2021/12/25 12:26:12;;;;;;;;;15.00;14.75;;;;;13.56;72.27;100097.00;5022315;28;45356;-57